sensor_id;sensor_type;location;lat;lon;timestamp;temperature;humidity
53752;DHT22;41095;53.090;6.692;2022-08-19T00:00:25;15.80;99.90
53752;DHT22;41095;53.090;6.692;2022-08-19T00:02:53;15.70;99.90
53752;DHT22;41095;53.090;6.692;2022-08-19T00:05:19;15.70;99.90
53752;DHT22;41095;53.090;6.692;2022-08-19T00:07:46;15.70;99.90
53752;DHT22;41095;53.090;6.692;2022-08-19T00:10:13;15.70;99.90
53752;DHT22;41095;53.090;6.692;2022-08-19T00:12:40;15.70;99.90
53752;DHT22;41095;53.090;6.692;2022-08-19T00:15:09;15.70;99.90
53752;DHT22;41095;53.090;6.692;2022-08-19T00:17:43;15.70;99.90
53752;DHT22;41095;53.090;6.692;2022-08-19T00:20:11;15.60;99.90
53752;DHT22;41095;53.090;6.692;2022-08-19T00:22:38;15.60;99.90
53752;DHT22;41095;53.090;6.692;2022-08-19T00:25:04;15.60;99.90
53752;DHT22;41095;53.090;6.692;2022-08-19T00:27:30;15.60;99.90
53752;DHT22;41095;53.090;6.692;2022-08-19T00:29:56;15.70;99.90
53752;DHT22;41095;53.090;6.692;2022-08-19T00:32:22;15.60;99.90
53752;DHT22;41095;53.090;6.692;2022-08-19T00:34:47;15.60;99.90
53752;DHT22;41095;53.090;6.692;2022-08-19T00:37:13;15.60;99.90
53752;DHT22;41095;53.090;6.692;2022-08-19T00:39:39;15.60;99.90
53752;DHT22;41095;53.090;6.692;2022-08-19T00:42:04;15.60;99.90
53752;DHT22;41095;53.090;6.692;2022-08-19T00:44:31;15.50;99.90
53752;DHT22;41095;53.090;6.692;2022-08-19T00:46:58;15.50;99.90
53752;DHT22;41095;53.090;6.692;2022-08-19T00:49:41;15.40;99.90
53752;DHT22;41095;53.090;6.692;2022-08-19T00:52:15;15.40;99.90
53752;DHT22;41095;53.090;6.692;2022-08-19T00:54:42;15.40;99.90
53752;DHT22;41095;53.090;6.692;2022-08-19T00:57:11;15.40;99.90
53752;DHT22;41095;53.090;6.692;2022-08-19T00:59:39;15.40;99.90
53752;DHT22;41095;53.090;6.692;2022-08-19T01:02:06;15.30;99.90
53752;DHT22;41095;53.090;6.692;2022-08-19T01:04:32;15.30;99.90
53752;DHT22;41095;53.090;6.692;2022-08-19T01:06:59;15.20;99.90
53752;DHT22;41095;53.090;6.692;2022-08-19T01:09:25;15.20;99.90
53752;DHT22;41095;53.090;6.692;2022-08-19T01:11:51;15.20;99.90
53752;DHT22;41095;53.090;6.692;2022-08-19T01:14:17;15.00;99.90
53752;DHT22;41095;53.090;6.692;2022-08-19T01:16:45;15.20;99.90
53752;DHT22;41095;53.090;6.692;2022-08-19T01:19:27;15.20;99.90
53752;DHT22;41095;53.090;6.692;2022-08-19T01:22:11;15.20;99.90
53752;DHT22;41095;53.090;6.692;2022-08-19T01:24:37;13.70;99.90
53752;DHT22;41095;53.090;6.692;2022-08-19T01:27:05;15.10;99.90
53752;DHT22;41095;53.090;6.692;2022-08-19T01:29:31;15.10;99.90
53752;DHT22;41095;53.090;6.692;2022-08-19T01:31:57;15.10;99.90
53752;DHT22;41095;53.090;6.692;2022-08-19T01:34:23;15.00;99.90
53752;DHT22;41095;53.090;6.692;2022-08-19T01:36:49;15.00;99.90
53752;DHT22;41095;53.090;6.692;2022-08-19T01:39:24;15.00;99.90
53752;DHT22;41095;53.090;6.692;2022-08-19T01:41:50;15.00;99.90
53752;DHT22;41095;53.090;6.692;2022-08-19T01:44:20;15.00;99.90
53752;DHT22;41095;53.090;6.692;2022-08-19T01:46:50;15.00;99.90
53752;DHT22;41095;53.090;6.692;2022-08-19T01:49:19;14.90;99.90
53752;DHT22;41095;53.090;6.692;2022-08-19T01:51:45;14.80;99.90
53752;DHT22;41095;53.090;6.692;2022-08-19T01:54:13;14.90;99.90
53752;DHT22;41095;53.090;6.692;2022-08-19T01:56:39;14.90;99.90
53752;DHT22;41095;53.090;6.692;2022-08-19T01:59:13;14.80;99.90
53752;DHT22;41095;53.090;6.692;2022-08-19T02:01:40;14.80;99.90
53752;DHT22;41095;53.090;6.692;2022-08-19T02:04:06;14.80;99.90
53752;DHT22;41095;53.090;6.692;2022-08-19T02:06:32;14.80;99.90
53752;DHT22;41095;53.090;6.692;2022-08-19T02:08:58;14.80;99.90
53752;DHT22;41095;53.090;6.692;2022-08-19T02:11:28;14.70;99.90
53752;DHT22;41095;53.090;6.692;2022-08-19T02:13:55;14.70;99.90
53752;DHT22;41095;53.090;6.692;2022-08-19T02:16:21;14.70;99.90
53752;DHT22;41095;53.090;6.692;2022-08-19T02:18:47;14.70;99.90
53752;DHT22;41095;53.090;6.692;2022-08-19T02:21:20;14.60;99.90
53752;DHT22;41095;53.090;6.692;2022-08-19T02:23:47;14.70;99.90
53752;DHT22;41095;53.090;6.692;2022-08-19T02:26:13;14.60;99.90
53752;DHT22;41095;53.090;6.692;2022-08-19T02:28:40;14.60;99.90
53752;DHT22;41095;53.090;6.692;2022-08-19T02:31:10;14.60;99.90
53752;DHT22;41095;53.090;6.692;2022-08-19T02:33:36;14.60;99.90
53752;DHT22;41095;53.090;6.692;2022-08-19T02:36:04;14.60;99.90
53752;DHT22;41095;53.090;6.692;2022-08-19T02:38:30;14.60;99.90
53752;DHT22;41095;53.090;6.692;2022-08-19T02:41:02;14.50;99.90
53752;DHT22;41095;53.090;6.692;2022-08-19T02:43:30;14.50;99.90
53752;DHT22;41095;53.090;6.692;2022-08-19T02:45:56;14.50;99.90
53752;DHT22;41095;53.090;6.692;2022-08-19T02:48:23;14.50;99.90
53752;DHT22;41095;53.090;6.692;2022-08-19T02:50:51;14.60;99.90
53752;DHT22;41095;53.090;6.692;2022-08-19T02:53:26;14.60;99.90
53752;DHT22;41095;53.090;6.692;2022-08-19T02:55:52;14.60;99.90
53752;DHT22;41095;53.090;6.692;2022-08-19T02:58:18;14.60;99.90
53752;DHT22;41095;53.090;6.692;2022-08-19T03:00:47;14.50;99.90
53752;DHT22;41095;53.090;6.692;2022-08-19T03:03:14;14.50;99.90
53752;DHT22;41095;53.090;6.692;2022-08-19T03:05:41;14.50;99.90
53752;DHT22;41095;53.090;6.692;2022-08-19T03:08:08;14.40;99.90
53752;DHT22;41095;53.090;6.692;2022-08-19T03:10:44;14.50;99.90
53752;DHT22;41095;53.090;6.692;2022-08-19T03:13:13;14.50;99.90
53752;DHT22;41095;53.090;6.692;2022-08-19T03:15:44;14.50;99.90
53752;DHT22;41095;53.090;6.692;2022-08-19T03:18:11;14.40;99.90
53752;DHT22;41095;53.090;6.692;2022-08-19T03:20:42;14.50;99.90
53752;DHT22;41095;53.090;6.692;2022-08-19T03:23:08;14.40;99.90
53752;DHT22;41095;53.090;6.692;2022-08-19T03:25:39;14.40;99.90
53752;DHT22;41095;53.090;6.692;2022-08-19T03:28:06;14.40;99.90
53752;DHT22;41095;53.090;6.692;2022-08-19T03:30:32;14.40;99.90
53752;DHT22;41095;53.090;6.692;2022-08-19T03:32:58;14.40;99.90
53752;DHT22;41095;53.090;6.692;2022-08-19T03:35:24;14.30;99.90
53752;DHT22;41095;53.090;6.692;2022-08-19T03:37:49;14.40;99.90
53752;DHT22;41095;53.090;6.692;2022-08-19T03:40:16;14.30;99.90
53752;DHT22;41095;53.090;6.692;2022-08-19T03:42:44;14.30;99.90
53752;DHT22;41095;53.090;6.692;2022-08-19T03:45:11;14.40;99.90
53752;DHT22;41095;53.090;6.692;2022-08-19T03:47:37;14.30;99.90
53752;DHT22;41095;53.090;6.692;2022-08-19T03:50:03;14.30;99.90
53752;DHT22;41095;53.090;6.692;2022-08-19T03:52:30;14.20;99.90
53752;DHT22;41095;53.090;6.692;2022-08-19T03:54:55;14.20;99.90
53752;DHT22;41095;53.090;6.692;2022-08-19T03:57:21;14.20;99.90
53752;DHT22;41095;53.090;6.692;2022-08-19T03:59:47;14.20;99.90
53752;DHT22;41095;53.090;6.692;2022-08-19T04:02:13;14.20;99.90
53752;DHT22;41095;53.090;6.692;2022-08-19T04:04:41;14.30;99.90
53752;DHT22;41095;53.090;6.692;2022-08-19T04:07:08;14.20;99.90
53752;DHT22;41095;53.090;6.692;2022-08-19T04:09:35;14.20;99.90
53752;DHT22;41095;53.090;6.692;2022-08-19T04:12:03;14.20;99.90
53752;DHT22;41095;53.090;6.692;2022-08-19T04:14:30;14.30;99.90
53752;DHT22;41095;53.090;6.692;2022-08-19T04:17:01;14.30;99.90
53752;DHT22;41095;53.090;6.692;2022-08-19T04:19:30;14.30;99.90
53752;DHT22;41095;53.090;6.692;2022-08-19T04:21:56;14.30;99.90
53752;DHT22;41095;53.090;6.692;2022-08-19T04:24:23;14.20;99.90
53752;DHT22;41095;53.090;6.692;2022-08-19T04:26:50;14.30;99.90
53752;DHT22;41095;53.090;6.692;2022-08-19T04:29:22;14.30;99.90
53752;DHT22;41095;53.090;6.692;2022-08-19T04:31:50;14.30;99.90
53752;DHT22;41095;53.090;6.692;2022-08-19T04:34:19;14.30;99.90
53752;DHT22;41095;53.090;6.692;2022-08-19T04:36:47;14.30;99.90
53752;DHT22;41095;53.090;6.692;2022-08-19T04:39:18;14.30;99.90
53752;DHT22;41095;53.090;6.692;2022-08-19T04:41:45;14.30;99.90
53752;DHT22;41095;53.090;6.692;2022-08-19T04:44:31;14.30;99.90
53752;DHT22;41095;53.090;6.692;2022-08-19T04:46:57;14.30;99.90
53752;DHT22;41095;53.090;6.692;2022-08-19T04:49:24;14.30;99.90
53752;DHT22;41095;53.090;6.692;2022-08-19T04:51:52;14.30;99.90
53752;DHT22;41095;53.090;6.692;2022-08-19T04:54:20;14.30;99.90
53752;DHT22;41095;53.090;6.692;2022-08-19T04:56:49;14.30;99.90
53752;DHT22;41095;53.090;6.692;2022-08-19T04:59:16;14.20;99.90
53752;DHT22;41095;53.090;6.692;2022-08-19T05:01:44;14.30;99.90
53752;DHT22;41095;53.090;6.692;2022-08-19T05:04:13;14.30;99.90
53752;DHT22;41095;53.090;6.692;2022-08-19T05:06:39;14.30;99.90
53752;DHT22;41095;53.090;6.692;2022-08-19T05:09:05;14.30;99.90
53752;DHT22;41095;53.090;6.692;2022-08-19T05:11:34;14.30;99.90
53752;DHT22;41095;53.090;6.692;2022-08-19T05:14:02;14.30;99.90
53752;DHT22;41095;53.090;6.692;2022-08-19T05:16:28;14.40;99.90
53752;DHT22;41095;53.090;6.692;2022-08-19T05:18:54;14.50;99.90
53752;DHT22;41095;53.090;6.692;2022-08-19T05:21:40;14.50;99.90
53752;DHT22;41095;53.090;6.692;2022-08-19T05:24:25;14.60;99.90
53752;DHT22;41095;53.090;6.692;2022-08-19T05:26:53;14.70;99.90
53752;DHT22;41095;53.090;6.692;2022-08-19T05:29:22;14.70;99.90
53752;DHT22;41095;53.090;6.692;2022-08-19T05:31:49;14.80;99.90
53752;DHT22;41095;53.090;6.692;2022-08-19T05:34:15;14.90;99.90
53752;DHT22;41095;53.090;6.692;2022-08-19T05:36:43;15.00;99.90
53752;DHT22;41095;53.090;6.692;2022-08-19T05:39:13;15.00;99.90
53752;DHT22;41095;53.090;6.692;2022-08-19T05:41:48;15.10;99.90
53752;DHT22;41095;53.090;6.692;2022-08-19T05:44:14;15.20;99.90
53752;DHT22;41095;53.090;6.692;2022-08-19T05:46:43;15.30;99.90
53752;DHT22;41095;53.090;6.692;2022-08-19T05:49:09;15.50;99.90
53752;DHT22;41095;53.090;6.692;2022-08-19T05:51:36;15.50;99.90
53752;DHT22;41095;53.090;6.692;2022-08-19T05:54:04;15.60;99.90
53752;DHT22;41095;53.090;6.692;2022-08-19T05:56:31;15.70;99.90
53752;DHT22;41095;53.090;6.692;2022-08-19T05:58:57;15.80;99.90
53752;DHT22;41095;53.090;6.692;2022-08-19T06:01:24;15.90;99.90
53752;DHT22;41095;53.090;6.692;2022-08-19T06:03:50;16.00;99.90
53752;DHT22;41095;53.090;6.692;2022-08-19T06:06:16;16.10;99.90
53752;DHT22;41095;53.090;6.692;2022-08-19T06:08:42;16.20;99.90
53752;DHT22;41095;53.090;6.692;2022-08-19T06:11:21;16.30;99.90
53752;DHT22;41095;53.090;6.692;2022-08-19T06:13:49;16.40;99.90
53752;DHT22;41095;53.090;6.692;2022-08-19T06:16:20;16.50;99.90
53752;DHT22;41095;53.090;6.692;2022-08-19T06:18:55;16.70;99.90
53752;DHT22;41095;53.090;6.692;2022-08-19T06:21:25;16.70;99.90
53752;DHT22;41095;53.090;6.692;2022-08-19T06:23:52;16.80;99.90
53752;DHT22;41095;53.090;6.692;2022-08-19T06:26:19;17.00;99.90
53752;DHT22;41095;53.090;6.692;2022-08-19T06:28:46;17.10;99.90
53752;DHT22;41095;53.090;6.692;2022-08-19T06:31:15;17.10;99.90
53752;DHT22;41095;53.090;6.692;2022-08-19T06:33:42;17.20;99.90
53752;DHT22;41095;53.090;6.692;2022-08-19T06:36:27;17.30;99.90
53752;DHT22;41095;53.090;6.692;2022-08-19T06:38:54;17.40;99.90
53752;DHT22;41095;53.090;6.692;2022-08-19T06:41:19;17.50;99.90
53752;DHT22;41095;53.090;6.692;2022-08-19T06:43:45;17.50;99.90
53752;DHT22;41095;53.090;6.692;2022-08-19T06:46:16;17.70;99.90
53752;DHT22;41095;53.090;6.692;2022-08-19T06:48:43;17.80;99.90
53752;DHT22;41095;53.090;6.692;2022-08-19T06:51:08;17.80;99.90
53752;DHT22;41095;53.090;6.692;2022-08-19T06:53:35;18.00;99.90
53752;DHT22;41095;53.090;6.692;2022-08-19T06:56:00;18.10;99.90
53752;DHT22;41095;53.090;6.692;2022-08-19T06:58:29;18.30;99.90
53752;DHT22;41095;53.090;6.692;2022-08-19T07:00:59;18.50;99.90
53752;DHT22;41095;53.090;6.692;2022-08-19T07:03:28;18.60;99.90
53752;DHT22;41095;53.090;6.692;2022-08-19T07:05:54;19.30;99.90
53752;DHT22;41095;53.090;6.692;2022-08-19T07:08:19;20.60;99.90
53752;DHT22;41095;53.090;6.692;2022-08-19T07:10:46;22.20;99.90
53752;DHT22;41095;53.090;6.692;2022-08-19T07:13:12;23.50;99.90
53752;DHT22;41095;53.090;6.692;2022-08-19T07:15:38;24.40;99.90
53752;DHT22;41095;53.090;6.692;2022-08-19T07:18:03;25.00;99.90
53752;DHT22;41095;53.090;6.692;2022-08-19T07:20:30;25.70;99.90
53752;DHT22;41095;53.090;6.692;2022-08-19T07:22:56;26.20;99.90
53752;DHT22;41095;53.090;6.692;2022-08-19T07:25:22;26.80;99.90
53752;DHT22;41095;53.090;6.692;2022-08-19T07:27:50;27.20;99.90
53752;DHT22;41095;53.090;6.692;2022-08-19T07:30:16;28.00;99.90
53752;DHT22;41095;53.090;6.692;2022-08-19T07:32:42;28.40;99.90
53752;DHT22;41095;53.090;6.692;2022-08-19T07:35:08;28.40;99.90
53752;DHT22;41095;53.090;6.692;2022-08-19T07:37:35;28.30;99.40
53752;DHT22;41095;53.090;6.692;2022-08-19T07:40:05;28.60;99.90
53752;DHT22;41095;53.090;6.692;2022-08-19T07:42:31;29.20;98.10
53752;DHT22;41095;53.090;6.692;2022-08-19T07:44:57;29.30;99.40
53752;DHT22;41095;53.090;6.692;2022-08-19T07:47:23;29.80;98.20
53752;DHT22;41095;53.090;6.692;2022-08-19T07:49:49;30.10;97.60
53752;DHT22;41095;53.090;6.692;2022-08-19T07:52:15;30.00;97.00
53752;DHT22;41095;53.090;6.692;2022-08-19T07:54:42;30.60;96.60
53752;DHT22;41095;53.090;6.692;2022-08-19T07:57:08;31.00;96.00
53752;DHT22;41095;53.090;6.692;2022-08-19T07:59:34;31.10;95.40
53752;DHT22;41095;53.090;6.692;2022-08-19T08:02:01;31.10;94.80
53752;DHT22;41095;53.090;6.692;2022-08-19T08:04:29;31.00;94.50
53752;DHT22;41095;53.090;6.692;2022-08-19T08:07:14;31.40;94.20
53752;DHT22;41095;53.090;6.692;2022-08-19T08:09:58;31.40;93.70
53752;DHT22;41095;53.090;6.692;2022-08-19T08:12:28;31.50;93.40
53752;DHT22;41095;53.090;6.692;2022-08-19T08:14:58;32.10;92.70
53752;DHT22;41095;53.090;6.692;2022-08-19T08:17:26;32.50;92.20
53752;DHT22;41095;53.090;6.692;2022-08-19T08:19:52;32.70;91.80
53752;DHT22;41095;53.090;6.692;2022-08-19T08:22:21;32.80;91.30
53752;DHT22;41095;53.090;6.692;2022-08-19T08:25:15;32.80;90.70
53752;DHT22;41095;53.090;6.692;2022-08-19T08:27:43;32.90;90.70
53752;DHT22;41095;53.090;6.692;2022-08-19T08:30:12;33.20;90.10
53752;DHT22;41095;53.090;6.692;2022-08-19T08:32:40;33.30;88.00
53752;DHT22;41095;53.090;6.692;2022-08-19T08:35:08;33.20;88.70
53752;DHT22;41095;53.090;6.692;2022-08-19T08:37:34;33.10;87.40
53752;DHT22;41095;53.090;6.692;2022-08-19T08:40:06;33.30;87.40
53752;DHT22;41095;53.090;6.692;2022-08-19T08:42:38;33.20;86.30
53752;DHT22;41095;53.090;6.692;2022-08-19T08:45:11;32.80;85.40
53752;DHT22;41095;53.090;6.692;2022-08-19T08:47:43;32.80;84.70
53752;DHT22;41095;53.090;6.692;2022-08-19T08:50:45;33.10;85.90
53752;DHT22;41095;53.090;6.692;2022-08-19T08:53:14;33.10;82.00
53752;DHT22;41095;53.090;6.692;2022-08-19T08:55:41;33.10;85.70
53752;DHT22;41095;53.090;6.692;2022-08-19T08:58:13;32.90;85.70
53752;DHT22;41095;53.090;6.692;2022-08-19T09:00:44;33.30;83.60
53752;DHT22;41095;53.090;6.692;2022-08-19T09:03:24;33.30;84.30
53752;DHT22;41095;53.090;6.692;2022-08-19T09:06:01;33.30;81.70
53752;DHT22;41095;53.090;6.692;2022-08-19T09:11:23;32.90;82.20
53752;DHT22;41095;53.090;6.692;2022-08-19T09:16:39;32.60;82.60
53752;DHT22;41095;53.090;6.692;2022-08-19T09:19:07;32.50;84.60
53752;DHT22;41095;53.090;6.692;2022-08-19T09:21:33;32.80;84.10
53752;DHT22;41095;53.090;6.692;2022-08-19T09:24:01;33.10;83.70
53752;DHT22;41095;53.090;6.692;2022-08-19T09:26:27;32.80;83.00
53752;DHT22;41095;53.090;6.692;2022-08-19T09:28:53;32.90;83.40
53752;DHT22;41095;53.090;6.692;2022-08-19T09:31:26;33.10;82.80
53752;DHT22;41095;53.090;6.692;2022-08-19T09:33:53;33.20;81.70
53752;DHT22;41095;53.090;6.692;2022-08-19T09:36:24;33.20;81.60
53752;DHT22;41095;53.090;6.692;2022-08-19T09:38:52;33.30;81.30
53752;DHT22;41095;53.090;6.692;2022-08-19T09:41:20;33.10;80.00
53752;DHT22;41095;53.090;6.692;2022-08-19T09:43:49;32.90;80.30
53752;DHT22;41095;53.090;6.692;2022-08-19T09:46:18;32.70;78.90
53752;DHT22;41095;53.090;6.692;2022-08-19T09:48:47;33.20;79.70
53752;DHT22;41095;53.090;6.692;2022-08-19T09:51:25;33.00;79.30
53752;DHT22;41095;53.090;6.692;2022-08-19T09:53:54;33.40;79.40
53752;DHT22;41095;53.090;6.692;2022-08-19T09:56:21;33.20;79.80
53752;DHT22;41095;53.090;6.692;2022-08-19T09:58:48;33.40;79.10
53752;DHT22;41095;53.090;6.692;2022-08-19T10:01:19;33.40;79.30
53752;DHT22;41095;53.090;6.692;2022-08-19T10:03:48;33.50;78.20
53752;DHT22;41095;53.090;6.692;2022-08-19T10:06:15;33.70;78.90
53752;DHT22;41095;53.090;6.692;2022-08-19T10:08:41;33.70;78.40
53752;DHT22;41095;53.090;6.692;2022-08-19T10:11:09;33.60;78.80
53752;DHT22;41095;53.090;6.692;2022-08-19T10:13:36;33.40;78.80
53752;DHT22;41095;53.090;6.692;2022-08-19T10:16:08;33.50;77.90
53752;DHT22;41095;53.090;6.692;2022-08-19T10:18:35;33.60;77.90
53752;DHT22;41095;53.090;6.692;2022-08-19T10:21:16;33.50;78.10
53752;DHT22;41095;53.090;6.692;2022-08-19T10:23:46;33.40;76.40
53752;DHT22;41095;53.090;6.692;2022-08-19T10:26:15;33.20;76.90
53752;DHT22;41095;53.090;6.692;2022-08-19T10:28:41;33.00;78.30
53752;DHT22;41095;53.090;6.692;2022-08-19T10:31:10;33.10;79.20
53752;DHT22;41095;53.090;6.692;2022-08-19T10:33:37;33.30;77.90
53752;DHT22;41095;53.090;6.692;2022-08-19T10:36:06;33.40;78.00
53752;DHT22;41095;53.090;6.692;2022-08-19T10:38:33;33.60;78.70
53752;DHT22;41095;53.090;6.692;2022-08-19T10:41:11;33.60;78.20
53752;DHT22;41095;53.090;6.692;2022-08-19T10:43:37;33.60;76.00
53752;DHT22;41095;53.090;6.692;2022-08-19T10:46:08;33.20;78.10
53752;DHT22;41095;53.090;6.692;2022-08-19T10:48:34;32.90;78.40
53752;DHT22;41095;53.090;6.692;2022-08-19T10:51:01;33.00;78.50
53752;DHT22;41095;53.090;6.692;2022-08-19T10:53:46;32.80;78.40
53752;DHT22;41095;53.090;6.692;2022-08-19T10:56:12;32.70;78.30
53752;DHT22;41095;53.090;6.692;2022-08-19T10:58:56;32.40;79.10
53752;DHT22;41095;53.090;6.692;2022-08-19T11:01:24;32.00;79.30
53752;DHT22;41095;53.090;6.692;2022-08-19T11:03:50;31.30;78.80
53752;DHT22;41095;53.090;6.692;2022-08-19T11:06:16;30.90;79.30
53752;DHT22;41095;53.090;6.692;2022-08-19T11:08:42;30.50;79.10
53752;DHT22;41095;53.090;6.692;2022-08-19T11:11:11;30.20;79.00
53752;DHT22;41095;53.090;6.692;2022-08-19T11:13:40;29.80;79.10
53752;DHT22;41095;53.090;6.692;2022-08-19T11:16:12;29.60;80.20
53752;DHT22;41095;53.090;6.692;2022-08-19T11:18:42;29.40;80.20
53752;DHT22;41095;53.090;6.692;2022-08-19T11:23:42;29.40;81.10
53752;DHT22;41095;53.090;6.692;2022-08-19T11:26:09;29.30;80.90
53752;DHT22;41095;53.090;6.692;2022-08-19T11:28:36;29.20;81.00
53752;DHT22;41095;53.090;6.692;2022-08-19T11:31:02;29.30;81.70
53752;DHT22;41095;53.090;6.692;2022-08-19T11:33:30;29.30;80.90
53752;DHT22;41095;53.090;6.692;2022-08-19T11:36:00;29.30;81.00
53752;DHT22;41095;53.090;6.692;2022-08-19T11:38:27;29.30;81.40
53752;DHT22;41095;53.090;6.692;2022-08-19T11:41:00;29.40;81.00
53752;DHT22;41095;53.090;6.692;2022-08-19T11:43:27;29.50;81.20
53752;DHT22;41095;53.090;6.692;2022-08-19T11:45:54;29.30;80.10
53752;DHT22;41095;53.090;6.692;2022-08-19T11:48:21;29.10;80.80
53752;DHT22;41095;53.090;6.692;2022-08-19T11:50:49;29.20;82.40
53752;DHT22;41095;53.090;6.692;2022-08-19T11:53:19;29.30;82.10
53752;DHT22;41095;53.090;6.692;2022-08-19T11:55:46;29.40;82.00
53752;DHT22;41095;53.090;6.692;2022-08-19T11:58:14;29.30;81.60
53752;DHT22;41095;53.090;6.692;2022-08-19T12:00:41;29.30;82.00
53752;DHT22;41095;53.090;6.692;2022-08-19T12:03:07;29.20;82.00
53752;DHT22;41095;53.090;6.692;2022-08-19T12:05:36;29.20;82.20
53752;DHT22;41095;53.090;6.692;2022-08-19T12:08:02;29.00;82.60
53752;DHT22;41095;53.090;6.692;2022-08-19T12:10:28;28.90;82.80
53752;DHT22;41095;53.090;6.692;2022-08-19T12:12:53;28.70;82.70
53752;DHT22;41095;53.090;6.692;2022-08-19T12:15:19;28.50;82.60
53752;DHT22;41095;53.090;6.692;2022-08-19T12:17:45;28.30;83.20
53752;DHT22;41095;53.090;6.692;2022-08-19T12:20:12;28.10;83.80
53752;DHT22;41095;53.090;6.692;2022-08-19T12:22:39;28.10;84.20
53752;DHT22;41095;53.090;6.692;2022-08-19T12:25:10;28.00;85.30
53752;DHT22;41095;53.090;6.692;2022-08-19T12:27:37;28.00;86.30
53752;DHT22;41095;53.090;6.692;2022-08-19T12:30:04;28.00;87.50
53752;DHT22;41095;53.090;6.692;2022-08-19T12:32:30;27.90;87.70
53752;DHT22;41095;53.090;6.692;2022-08-19T12:34:55;28.00;87.60
53752;DHT22;41095;53.090;6.692;2022-08-19T12:37:21;27.90;87.90
53752;DHT22;41095;53.090;6.692;2022-08-19T12:39:47;27.90;87.40
53752;DHT22;41095;53.090;6.692;2022-08-19T12:42:14;27.90;86.80
53752;DHT22;41095;53.090;6.692;2022-08-19T12:44:41;27.90;86.80
53752;DHT22;41095;53.090;6.692;2022-08-19T12:47:09;27.90;86.00
53752;DHT22;41095;53.090;6.692;2022-08-19T12:49:36;28.00;85.80
53752;DHT22;41095;53.090;6.692;2022-08-19T12:52:05;27.90;86.40
53752;DHT22;41095;53.090;6.692;2022-08-19T12:54:33;28.00;86.70
53752;DHT22;41095;53.090;6.692;2022-08-19T12:56:59;28.00;86.50
53752;DHT22;41095;53.090;6.692;2022-08-19T12:59:25;28.00;85.50
53752;DHT22;41095;53.090;6.692;2022-08-19T13:01:51;27.90;85.20
53752;DHT22;41095;53.090;6.692;2022-08-19T13:04:17;28.10;85.00
53752;DHT22;41095;53.090;6.692;2022-08-19T13:06:43;28.20;85.00
53752;DHT22;41095;53.090;6.692;2022-08-19T13:09:09;28.50;85.10
53752;DHT22;41095;53.090;6.692;2022-08-19T13:11:36;28.70;85.00
53752;DHT22;41095;53.090;6.692;2022-08-19T13:14:02;28.80;83.30
53752;DHT22;41095;53.090;6.692;2022-08-19T13:16:29;28.80;83.60
53752;DHT22;41095;53.090;6.692;2022-08-19T13:18:56;28.90;85.00
53752;DHT22;41095;53.090;6.692;2022-08-19T13:21:25;29.00;83.90
53752;DHT22;41095;53.090;6.692;2022-08-19T13:23:51;29.10;83.70
53752;DHT22;41095;53.090;6.692;2022-08-19T13:26:18;29.20;84.30
53752;DHT22;41095;53.090;6.692;2022-08-19T13:28:44;29.20;83.60
53752;DHT22;41095;53.090;6.692;2022-08-19T13:31:33;29.10;82.50
53752;DHT22;41095;53.090;6.692;2022-08-19T13:34:25;28.90;84.50
53752;DHT22;41095;53.090;6.692;2022-08-19T13:36:52;28.90;84.40
53752;DHT22;41095;53.090;6.692;2022-08-19T13:39:19;28.80;84.10
53752;DHT22;41095;53.090;6.692;2022-08-19T13:41:46;28.80;84.40
53752;DHT22;41095;53.090;6.692;2022-08-19T13:44:14;28.70;84.00
53752;DHT22;41095;53.090;6.692;2022-08-19T13:46:41;28.40;85.50
53752;DHT22;41095;53.090;6.692;2022-08-19T13:49:12;28.10;86.30
53752;DHT22;41095;53.090;6.692;2022-08-19T13:51:41;27.90;86.90
53752;DHT22;41095;53.090;6.692;2022-08-19T13:54:08;27.70;87.80
53752;DHT22;41095;53.090;6.692;2022-08-19T13:56:34;27.70;88.70
53752;DHT22;41095;53.090;6.692;2022-08-19T13:59:01;27.50;89.20
53752;DHT22;41095;53.090;6.692;2022-08-19T14:01:27;27.40;89.70
53752;DHT22;41095;53.090;6.692;2022-08-19T14:03:53;27.20;90.40
53752;DHT22;41095;53.090;6.692;2022-08-19T14:06:20;27.10;90.70
53752;DHT22;41095;53.090;6.692;2022-08-19T14:08:46;27.00;91.10
53752;DHT22;41095;53.090;6.692;2022-08-19T14:11:12;26.90;91.40
53752;DHT22;41095;53.090;6.692;2022-08-19T14:13:38;26.70;91.80
53752;DHT22;41095;53.090;6.692;2022-08-19T14:16:12;26.50;92.20
53752;DHT22;41095;53.090;6.692;2022-08-19T14:18:38;26.40;92.90
53752;DHT22;41095;53.090;6.692;2022-08-19T14:21:05;26.30;93.10
53752;DHT22;41095;53.090;6.692;2022-08-19T14:23:32;26.20;93.40
53752;DHT22;41095;53.090;6.692;2022-08-19T14:26:10;26.10;93.50
53752;DHT22;41095;53.090;6.692;2022-08-19T14:28:37;26.00;94.20
53752;DHT22;41095;53.090;6.692;2022-08-19T14:31:04;26.10;93.90
53752;DHT22;41095;53.090;6.692;2022-08-19T14:33:30;26.10;93.80
53752;DHT22;41095;53.090;6.692;2022-08-19T14:35:57;26.30;93.90
53752;DHT22;41095;53.090;6.692;2022-08-19T14:38:23;26.10;94.00
53752;DHT22;41095;53.090;6.692;2022-08-19T14:40:49;25.90;93.90
53752;DHT22;41095;53.090;6.692;2022-08-19T14:43:14;25.90;93.80
53752;DHT22;41095;53.090;6.692;2022-08-19T14:45:40;25.80;93.90
53752;DHT22;41095;53.090;6.692;2022-08-19T14:48:07;25.70;94.20
53752;DHT22;41095;53.090;6.692;2022-08-19T14:50:34;25.70;94.50
53752;DHT22;41095;53.090;6.692;2022-08-19T14:53:02;25.80;94.70
53752;DHT22;41095;53.090;6.692;2022-08-19T14:55:29;25.80;94.90
53752;DHT22;41095;53.090;6.692;2022-08-19T14:57:55;25.80;95.20
53752;DHT22;41095;53.090;6.692;2022-08-19T15:00:21;25.70;95.00
53752;DHT22;41095;53.090;6.692;2022-08-19T15:02:48;25.70;95.00
53752;DHT22;41095;53.090;6.692;2022-08-19T15:05:14;25.60;95.40
53752;DHT22;41095;53.090;6.692;2022-08-19T15:07:40;25.50;95.70
53752;DHT22;41095;53.090;6.692;2022-08-19T15:10:07;25.30;96.00
53752;DHT22;41095;53.090;6.692;2022-08-19T15:12:36;25.20;96.70
53752;DHT22;41095;53.090;6.692;2022-08-19T15:15:07;25.20;97.10
53752;DHT22;41095;53.090;6.692;2022-08-19T15:17:33;25.80;97.40
53752;DHT22;41095;53.090;6.692;2022-08-19T15:20:00;25.10;97.10
53752;DHT22;41095;53.090;6.692;2022-08-19T15:22:27;25.00;97.30
53752;DHT22;41095;53.090;6.692;2022-08-19T15:24:53;25.00;97.60
53752;DHT22;41095;53.090;6.692;2022-08-19T15:27:20;25.00;98.00
53752;DHT22;41095;53.090;6.692;2022-08-19T15:29:45;25.00;98.20
53752;DHT22;41095;53.090;6.692;2022-08-19T15:32:11;25.00;98.30
53752;DHT22;41095;53.090;6.692;2022-08-19T15:34:37;25.10;98.40
53752;DHT22;41095;53.090;6.692;2022-08-19T15:37:03;25.20;98.50
53752;DHT22;41095;53.090;6.692;2022-08-19T15:39:31;25.40;98.60
53752;DHT22;41095;53.090;6.692;2022-08-19T15:41:57;25.60;98.80
53752;DHT22;41095;53.090;6.692;2022-08-19T15:44:25;25.70;98.50